createdAt,value
2023-06-29T00:00:58.511Z,2.72
2023-06-29T00:04:00.300Z,3.13
2023-06-29T00:07:04.202Z,2.90
2023-06-29T00:10:07.385Z,3.05
2023-06-29T00:13:08.798Z,3.17
2023-06-29T00:16:10.300Z,2.95
2023-06-29T00:19:15.711Z,3.05
2023-06-29T00:22:20.074Z,2.75
2023-06-29T00:25:21.587Z,3.30
2023-06-29T00:28:23.227Z,3.20
2023-06-29T00:31:25.630Z,3.10
2023-06-29T00:34:27.229Z,2.78
2023-06-29T00:37:28.708Z,2.97
2023-06-29T00:40:30.300Z,2.83
2023-06-29T00:43:31.885Z,3.38
2023-06-29T00:46:33.476Z,2.80
2023-06-29T00:49:35.258Z,3.35
2023-06-29T00:52:37.088Z,2.75
2023-06-29T00:55:39.161Z,3.10
2023-06-29T00:58:40.664Z,3.10
2023-06-29T01:01:44.231Z,2.83
2023-06-29T01:04:46.877Z,3.03
2023-06-29T01:08:06.868Z,3.53
2023-06-29T01:11:09.021Z,3.10
2023-06-29T01:14:12.622Z,3.08
2023-06-29T01:17:21.225Z,3.70
2023-06-29T01:20:27.511Z,3.22
2023-06-29T01:23:37.726Z,3.10
2023-06-29T01:26:39.641Z,3.17
2023-06-29T01:29:42.128Z,3.45
2023-06-29T01:32:43.606Z,3.60
2023-06-29T01:35:45.863Z,3.50
2023-06-29T01:39:00.053Z,3.15
2023-06-29T01:42:02.207Z,3.05
2023-06-29T01:45:05.816Z,3.40
2023-06-29T01:48:07.696Z,3.50
2023-06-29T01:51:10.079Z,3.20
2023-06-29T01:54:11.540Z,3.50
2023-06-29T01:57:13.948Z,2.83
2023-06-29T02:00:15.672Z,3.00
2023-06-29T02:03:17.331Z,3.20
2023-06-29T02:06:18.869Z,3.28
2023-06-29T02:09:20.305Z,3.20
2023-06-29T02:12:21.780Z,3.22
2023-06-29T02:15:23.235Z,3.25
2023-06-29T02:18:24.742Z,3.05
2023-06-29T02:21:26.424Z,3.17
2023-06-29T02:24:27.887Z,3.20
2023-06-29T02:27:29.363Z,3.25
2023-06-29T02:30:30.800Z,3.53
2023-06-29T02:33:32.276Z,3.25
2023-06-29T02:36:33.703Z,3.35
2023-06-29T02:39:35.134Z,3.38
2023-06-29T02:42:37.815Z,3.83
2023-06-29T02:45:39.319Z,3.15
2023-06-29T02:48:40.825Z,3.13
2023-06-29T02:51:42.359Z,3.35
2023-06-29T02:54:43.797Z,2.90
2023-06-29T02:57:45.264Z,3.35
2023-06-29T03:00:46.715Z,3.05
2023-06-29T03:03:48.162Z,3.60
2023-06-29T03:06:49.651Z,3.50
2023-06-29T03:09:51.115Z,3.13
2023-06-29T03:12:52.599Z,3.53
2023-06-29T03:15:57.789Z,3.00
2023-06-29T03:18:59.224Z,3.13
2023-06-29T03:22:00.695Z,3.13
2023-06-29T03:25:02.822Z,3.00
2023-06-29T03:28:04.540Z,3.70
2023-06-29T03:31:06.201Z,3.60
2023-06-29T03:34:07.760Z,4.40
2023-06-29T03:37:09.357Z,3.90
2023-06-29T03:40:11.481Z,4.32
2023-06-29T03:43:12.978Z,3.90
2023-06-29T03:46:14.563Z,3.88
2023-06-29T03:49:16.054Z,4.07
2023-06-29T03:52:17.482Z,3.40
2023-06-29T03:55:19.506Z,3.97
2023-06-29T03:58:21.232Z,4.30
2023-06-29T04:01:22.849Z,3.90
2023-06-29T04:04:24.291Z,3.90
2023-06-29T04:07:25.782Z,3.88
2023-06-29T04:10:27.269Z,3.60
2023-06-29T04:13:28.698Z,3.42
2023-06-29T04:16:30.175Z,3.60
2023-06-29T04:19:31.701Z,3.83
2023-06-29T04:22:33.145Z,3.95
2023-06-29T04:25:34.595Z,3.63
2023-06-29T04:28:36.983Z,3.83
2023-06-29T04:31:38.624Z,3.58
2023-06-29T04:34:40.060Z,3.35
2023-06-29T04:37:44.320Z,3.25
2023-06-29T04:40:45.812Z,3.83
2023-06-29T04:43:48.871Z,3.55
2023-06-29T04:46:50.421Z,3.53
2023-06-29T04:49:52.565Z,3.75
2023-06-29T04:52:59.604Z,2.85
2023-06-29T04:56:04.988Z,3.13
2023-06-29T04:59:06.423Z,3.35
2023-06-29T05:02:07.983Z,2.90
2023-06-29T05:05:09.775Z,2.50
2023-06-29T05:08:11.340Z,2.72
2023-06-29T05:11:12.775Z,2.60
2023-06-29T05:14:14.425Z,2.40
2023-06-29T05:17:16.271Z,2.60
2023-06-29T05:20:18.706Z,3.10
2023-06-29T05:23:20.461Z,3.38
2023-06-29T05:26:23.025Z,3.50
2023-06-29T05:29:25.218Z,3.60
2023-06-29T05:32:27.757Z,3.92
2023-06-29T05:35:29.214Z,3.80
2023-06-29T05:38:30.878Z,3.83
2023-06-29T05:41:32.511Z,3.40
2023-06-29T05:44:33.927Z,3.60
2023-06-29T05:47:35.385Z,3.17
2023-06-29T05:50:36.949Z,3.42
2023-06-29T05:53:38.405Z,3.17
2023-06-29T05:56:39.876Z,3.00
2023-06-29T05:59:41.352Z,3.00
2023-06-29T06:02:42.849Z,3.40
2023-06-29T06:05:44.341Z,3.20
2023-06-29T06:08:45.767Z,3.40
2023-06-29T06:11:48.361Z,3.53
2023-06-29T06:14:49.954Z,2.63
2023-06-29T06:17:51.729Z,3.35
2023-06-29T06:20:53.220Z,2.78
2023-06-29T06:23:54.804Z,2.90
2023-06-29T06:26:56.294Z,3.10
2023-06-29T06:29:57.777Z,2.60
2023-06-29T06:33:02.300Z,2.45
2023-06-29T06:36:05.116Z,2.47
2023-06-29T06:39:06.740Z,2.25
2023-06-29T06:42:08.393Z,2.20
2023-06-29T06:45:10.228Z,2.92
2023-06-29T06:48:12.329Z,2.55
2023-06-29T06:51:13.855Z,2.63
2023-06-29T06:54:15.260Z,2.40
2023-06-29T06:57:16.721Z,2.05
2023-06-29T07:00:18.713Z,2.00
2023-06-29T07:03:20.394Z,1.95
2023-06-29T07:06:24.275Z,2.45
2023-06-29T07:09:25.710Z,2.22
2023-06-29T07:12:27.200Z,2.38
2023-06-29T07:15:28.632Z,2.47
2023-06-29T07:18:31.136Z,2.42
2023-06-29T07:21:35.217Z,2.15
2023-06-29T07:24:36.824Z,2.43
2023-06-29T07:27:40.257Z,1.75
2023-06-29T07:30:41.745Z,2.85
2023-06-29T07:33:43.298Z,2.75
2023-06-29T07:36:44.736Z,2.72
2023-06-29T07:39:46.179Z,2.60
2023-06-29T07:42:47.706Z,2.95
2023-06-29T07:45:49.235Z,2.50
2023-06-29T07:48:53.380Z,2.45
2023-06-29T07:51:54.956Z,2.80
2023-06-29T07:54:56.373Z,2.53
2023-06-29T08:01:02.521Z,2.42
2023-06-29T08:04:05.025Z,2.85
2023-06-29T08:07:10.117Z,2.75
2023-06-29T08:10:12.389Z,3.08
2023-06-29T08:13:13.900Z,2.78
2023-06-29T08:16:15.788Z,3.30
2023-06-29T08:19:17.406Z,2.80
2023-06-29T08:22:18.914Z,2.75
2023-06-29T08:25:22.267Z,3.10
2023-06-29T08:28:23.804Z,2.60
2023-06-29T08:31:25.460Z,2.83
2023-06-29T08:34:26.917Z,2.70
2023-06-29T08:37:29.462Z,3.17
2023-06-29T08:40:32.498Z,2.40
2023-06-29T08:43:34.224Z,2.70
2023-06-29T08:46:38.783Z,2.55
2023-06-29T08:49:43.097Z,2.78
2023-06-29T08:52:45.569Z,1.98
2023-06-29T08:55:48.549Z,2.42
2023-06-29T08:58:50.919Z,1.77
2023-06-29T09:01:52.854Z,2.50
2023-06-29T09:04:54.658Z,2.38
2023-06-29T09:07:56.549Z,2.47
2023-06-29T09:10:58.013Z,2.30
2023-06-29T09:13:59.487Z,2.33
2023-06-29T09:17:02.995Z,2.10
2023-06-29T09:20:16.493Z,2.38
2023-06-29T09:23:18.085Z,1.95
2023-06-29T09:26:19.690Z,2.47
2023-06-29T09:29:21.834Z,2.33
2023-06-29T09:32:23.420Z,2.58
2023-06-29T09:35:24.872Z,2.90
2023-06-29T09:38:31.092Z,2.63
2023-06-29T09:41:32.715Z,2.90
2023-06-29T09:44:34.200Z,2.63
2023-06-29T09:50:43.168Z,2.03
2023-06-29T09:53:45.258Z,2.90
2023-06-29T09:56:48.675Z,2.70
2023-06-29T09:59:50.803Z,2.40
2023-06-29T10:02:52.640Z,3.00
2023-06-29T10:06:00.849Z,2.50
2023-06-29T10:09:03.008Z,2.50
2023-06-29T10:12:09.234Z,2.63
2023-06-29T10:15:15.125Z,2.47
2023-06-29T10:18:23.924Z,2.33
2023-06-29T10:21:25.843Z,2.20
2023-06-29T10:24:33.705Z,2.35
2023-06-29T10:27:36.633Z,2.33
2023-06-29T10:30:50.293Z,2.42
2023-06-29T10:33:52.880Z,2.42
2023-06-29T10:37:00.812Z,2.42
2023-06-29T10:40:06.358Z,2.50
2023-06-29T10:43:08.502Z,2.50
2023-06-29T10:46:10.030Z,2.00
2023-06-29T10:49:22.364Z,2.45
2023-06-29T10:52:25.401Z,2.33
2023-06-29T10:55:38.079Z,2.03
2023-06-29T10:58:40.144Z,1.88
2023-06-29T11:01:41.865Z,2.33
2023-06-29T11:04:43.778Z,1.80
2023-06-29T11:07:48.348Z,2.10
2023-06-29T11:10:50.827Z,2.22
2023-06-29T11:13:52.319Z,2.40
2023-06-29T11:16:55.157Z,1.83
2023-06-29T11:19:56.650Z,2.15
2023-06-29T11:22:58.792Z,1.92
2023-06-29T11:26:01.586Z,2.05
2023-06-29T11:29:07.156Z,2.15
2023-06-29T11:32:13.658Z,2.30
2023-06-29T11:35:15.220Z,2.00
2023-06-29T11:38:16.804Z,2.10
2023-06-29T11:41:18.335Z,2.38
2023-06-29T11:44:23.517Z,2.00
2023-06-29T11:47:33.187Z,2.25
2023-06-29T11:50:38.209Z,1.88
2023-06-29T11:56:43.531Z,2.60
2023-06-29T11:59:46.515Z,1.83
2023-06-29T12:02:48.065Z,1.92
2023-06-29T12:05:51.175Z,2.00
2023-06-29T12:08:53.492Z,2.05
2023-06-29T12:12:03.402Z,2.38
2023-06-29T12:15:21.886Z,1.83
2023-06-29T12:18:29.262Z,2.70
2023-06-29T12:21:34.871Z,2.38
2023-06-29T12:24:36.446Z,1.88
2023-06-29T12:27:38.610Z,2.00
2023-06-29T12:30:41.242Z,1.80
2023-06-29T12:33:42.688Z,2.00
2023-06-29T12:36:44.196Z,2.13
2023-06-29T12:39:45.697Z,1.67
2023-06-29T12:42:47.298Z,2.10
2023-06-29T12:45:48.748Z,1.95
2023-06-29T12:48:50.289Z,2.13
2023-06-29T12:51:51.749Z,2.30
2023-06-29T12:54:53.500Z,2.50
2023-06-29T12:57:54.936Z,2.25
2023-06-29T13:00:56.539Z,2.25
2023-06-29T13:03:58.237Z,2.10
2023-06-29T13:06:59.879Z,2.20
2023-06-29T13:10:01.545Z,2.00
2023-06-29T13:13:03.499Z,2.30
2023-06-29T13:16:05.206Z,2.00
2023-06-29T13:32:20.358Z,2.13
2023-06-29T13:35:23.095Z,2.28
2023-06-29T13:38:24.646Z,2.05
2023-06-29T13:41:40.042Z,2.33
2023-06-29T13:44:41.540Z,2.53
2023-06-29T13:47:43.444Z,2.65
2023-06-29T13:50:44.965Z,2.15
2023-06-29T13:53:46.377Z,2.13
2023-06-29T13:56:48.034Z,2.10
2023-06-29T13:59:49.548Z,1.65
2023-06-29T14:02:52.626Z,2.03
2023-06-29T14:05:55.092Z,2.00
2023-06-29T14:08:56.530Z,1.98
2023-06-29T14:11:59.753Z,2.67
2023-06-29T14:15:01.197Z,2.20
2023-06-29T14:18:03.442Z,2.20
2023-06-29T14:21:04.992Z,2.55
2023-06-29T14:24:06.511Z,2.55
2023-06-29T14:27:08.011Z,2.80
2023-06-29T14:30:11.927Z,2.15
2023-06-29T14:33:27.485Z,2.13
2023-06-29T14:36:30.027Z,1.95
2023-06-29T14:39:31.807Z,2.28
2023-06-29T14:42:33.891Z,2.33
2023-06-29T14:45:35.328Z,2.13
2023-06-29T14:48:36.786Z,2.45
2023-06-29T14:51:38.420Z,1.83
2023-06-29T14:54:39.886Z,1.85
2023-06-29T14:57:41.327Z,2.10
2023-06-29T15:03:45.099Z,2.28
2023-06-29T15:06:52.154Z,2.40
2023-06-29T15:09:53.852Z,2.35
2023-06-29T15:12:55.434Z,2.00
2023-06-29T15:15:59.284Z,1.98
2023-06-29T15:19:01.073Z,2.13
2023-06-29T15:22:02.732Z,2.20
2023-06-29T15:25:04.966Z,2.40
2023-06-29T15:28:06.728Z,2.20
2023-06-29T15:31:08.263Z,2.28
2023-06-29T15:34:09.853Z,2.22
2023-06-29T15:37:11.566Z,2.15
2023-06-29T15:40:13.702Z,2.10
2023-06-29T15:43:15.632Z,2.28
2023-06-29T15:46:17.339Z,2.45
2023-06-29T15:49:18.916Z,2.03
2023-06-29T15:52:22.897Z,2.28
2023-06-29T15:59:47.738Z,3.05
2023-06-29T16:02:49.305Z,2.45
2023-06-29T16:05:50.890Z,2.63
2023-06-29T16:08:52.554Z,2.83
2023-06-29T16:11:54.926Z,2.35
2023-06-29T16:15:00.080Z,2.08
2023-06-29T16:18:01.565Z,3.17
2023-06-29T16:21:03.052Z,3.70
2023-06-29T16:24:04.872Z,2.58
2023-06-29T16:27:06.374Z,2.58
2023-06-29T16:30:08.372Z,2.42
2023-06-29T16:33:10.017Z,2.75
2023-06-29T16:36:11.681Z,2.45
2023-06-29T16:39:13.584Z,2.58
2023-06-29T16:42:15.749Z,2.47
2023-06-29T16:45:17.451Z,2.80
2023-06-29T16:48:19.024Z,2.65
2023-06-29T16:51:20.647Z,2.92
2023-06-29T16:54:22.657Z,2.80
2023-06-29T16:57:24.149Z,2.90
2023-06-29T17:00:25.607Z,2.50
2023-06-29T17:03:28.214Z,2.97
2023-06-29T17:06:30.141Z,3.10
2023-06-29T17:09:31.589Z,2.78
2023-06-29T17:12:33.331Z,2.80
2023-06-29T17:15:34.871Z,2.83
2023-06-29T17:18:36.414Z,2.70
2023-06-29T17:21:38.900Z,2.70
2023-06-29T17:24:41.225Z,2.50
2023-06-29T17:27:42.736Z,2.75
2023-06-29T17:30:44.709Z,2.60
2023-06-29T17:33:54.894Z,2.72
2023-06-29T17:36:57.580Z,3.08
2023-06-29T17:39:59.002Z,3.00
2023-06-29T17:43:00.464Z,2.90
2023-06-29T17:46:02.023Z,2.92
2023-06-29T17:49:03.503Z,3.00
2023-06-29T17:52:05.325Z,2.72
2023-06-29T17:55:07.308Z,2.63
2023-06-29T17:58:08.751Z,2.88
2023-06-29T18:01:10.195Z,3.60
2023-06-29T18:04:11.875Z,2.80
2023-06-29T18:07:13.519Z,2.88
2023-06-29T18:10:16.109Z,2.90
2023-06-29T18:13:17.520Z,2.85
2023-06-29T18:16:19.098Z,2.50
2023-06-29T18:19:21.097Z,2.30
2023-06-29T18:22:22.613Z,3.15
2023-06-29T18:25:24.036Z,2.70
2023-06-29T18:28:25.575Z,2.30
2023-06-29T18:31:27.051Z,2.75
2023-06-29T18:34:28.483Z,3.10
2023-06-29T18:37:29.949Z,2.50
2023-06-29T18:40:33.397Z,3.25
2023-06-29T18:43:34.828Z,3.50
2023-06-29T18:47:00.897Z,3.47
2023-06-29T18:50:04.753Z,2.90
2023-06-29T18:53:06.203Z,2.95
2023-06-29T18:56:07.636Z,3.15
2023-06-29T18:59:13.155Z,3.28
2023-06-29T19:02:15.049Z,3.00
2023-06-29T19:05:19.475Z,2.85
2023-06-29T19:08:22.268Z,2.65
2023-06-29T19:11:24.402Z,2.75
2023-06-29T19:14:26.056Z,2.78
2023-06-29T19:17:29.035Z,3.10
2023-06-29T19:20:30.693Z,2.85
2023-06-29T19:23:32.143Z,3.03
2023-06-29T19:26:33.599Z,2.88
2023-06-29T19:29:35.088Z,2.92
2023-06-29T19:32:37.916Z,2.65
2023-06-29T19:35:39.439Z,3.15
2023-06-29T19:38:40.866Z,3.17
2023-06-29T19:41:42.249Z,3.08
2023-06-29T19:44:43.656Z,2.95
2023-06-29T19:47:45.141Z,3.40
2023-06-29T19:50:46.667Z,3.00
2023-06-29T19:53:48.095Z,3.00
2023-06-29T19:56:49.752Z,3.03
2023-06-29T19:59:51.230Z,3.08
2023-06-29T20:02:53.440Z,3.80
2023-06-29T20:05:54.968Z,3.20
2023-06-29T20:08:56.408Z,3.38
2023-06-29T20:11:57.917Z,3.45
2023-06-29T20:14:59.358Z,3.55
2023-06-29T20:18:00.826Z,3.65
2023-06-29T20:21:02.399Z,4.18
2023-06-29T20:24:04.166Z,3.90
2023-06-29T20:27:08.700Z,3.17
2023-06-29T20:33:11.641Z,3.67
2023-06-29T20:36:14.078Z,3.65
2023-06-29T20:39:15.636Z,3.92
2023-06-29T20:42:17.049Z,3.60
2023-06-29T20:45:18.593Z,3.78
2023-06-29T20:48:20.028Z,4.10
2023-06-29T20:51:21.440Z,4.30
2023-06-29T20:54:22.872Z,4.30
2023-06-29T20:57:24.464Z,4.55
2023-06-29T21:00:26.691Z,4.60
2023-06-29T21:03:29.876Z,4.50
2023-06-29T21:06:31.403Z,4.47
2023-06-29T21:09:33.521Z,3.88
2023-06-29T21:12:35.638Z,4.55
2023-06-29T21:15:37.111Z,5.28
2023-06-29T21:18:38.847Z,4.43
2023-06-29T21:21:41.225Z,4.40
2023-06-29T21:24:42.884Z,4.05
2023-06-29T21:27:44.615Z,4.28
2023-06-29T21:30:46.347Z,4.22
2023-06-29T21:33:48.181Z,4.50
2023-06-29T21:36:49.839Z,4.28
2023-06-29T21:39:51.311Z,3.63
2023-06-29T21:42:52.844Z,4.20
2023-06-29T21:45:54.329Z,4.68
2023-06-29T21:48:55.806Z,4.70
2023-06-29T21:51:57.317Z,4.13
2023-06-29T21:54:58.764Z,3.85
2023-06-29T21:58:00.206Z,4.95
2023-06-29T22:01:02.790Z,4.05
2023-06-29T22:04:04.443Z,4.22
2023-06-29T22:07:15.526Z,4.53
2023-06-29T22:10:18.347Z,4.65
2023-06-29T22:13:24.117Z,5.07
2023-06-29T22:16:26.029Z,4.82
2023-06-29T22:19:27.887Z,4.00
2023-06-29T22:22:29.315Z,4.45
2023-06-29T22:25:30.775Z,5.00
2023-06-29T22:28:32.225Z,4.22
2023-06-29T22:31:33.709Z,4.78
2023-06-29T22:34:35.153Z,4.65
2023-06-29T22:37:36.729Z,4.88
2023-06-29T22:40:38.247Z,4.47
2023-06-29T22:43:40.521Z,4.90
2023-06-29T22:46:42.043Z,4.72
2023-06-29T22:49:43.539Z,4.95
2023-06-29T22:52:45.063Z,4.45
2023-06-29T22:55:46.671Z,5.15
2023-06-29T22:59:05.444Z,5.18
2023-06-29T23:02:06.911Z,5.50
2023-06-29T23:05:09.322Z,5.05
2023-06-29T23:08:12.345Z,5.28
2023-06-29T23:11:13.847Z,5.85
2023-06-29T23:14:16.533Z,4.90
2023-06-29T23:17:23.369Z,5.45
2023-06-29T23:20:25.760Z,5.22
2023-06-29T23:23:27.198Z,4.93
2023-06-29T23:26:28.605Z,5.28
2023-06-29T23:29:30.066Z,4.70
2023-06-29T23:32:31.525Z,5.43
2023-06-29T23:35:33.011Z,5.00
2023-06-29T23:38:34.709Z,5.00
2023-06-29T23:41:36.131Z,4.70
2023-06-29T23:44:41.721Z,5.45
2023-06-29T23:47:44.303Z,5.13
2023-06-29T23:50:45.797Z,5.78
2023-06-29T23:53:47.225Z,4.97
2023-06-29T23:56:52.659Z,5.43
2023-06-29T23:59:54.200Z,5.45
